sensor_id;sensor_type;location;lat;lon;timestamp;pressure;altitude;pressure_sealevel;temperature
20730;BMP280;10526;50.850;12.928;2023-04-06T00:01:58;98265.78;;;1.03
20730;BMP280;10526;50.850;12.928;2023-04-06T00:12:45;98262.97;;;1.08
20730;BMP280;10526;50.850;12.928;2023-04-06T00:23:42;98258.03;;;1.06
20730;BMP280;10526;50.850;12.928;2023-04-06T00:33:44;98258.38;;;1.05
20730;BMP280;10526;50.850;12.928;2023-04-06T00:38:06;98257.22;;;1.14
20730;BMP280;10526;50.850;12.928;2023-04-06T00:42:28;98250.06;;;1.23
20730;BMP280;10526;50.850;12.928;2023-04-06T00:46:51;98252.50;;;1.29
20730;BMP280;10526;50.850;12.928;2023-04-06T00:51:13;98255.59;;;1.31
20730;BMP280;10526;50.850;12.928;2023-04-06T00:55:35;98250.97;;;1.28
20730;BMP280;10526;50.850;12.928;2023-04-06T00:59:58;98252.69;;;1.23
20730;BMP280;10526;50.850;12.928;2023-04-06T01:04:20;98255.50;;;1.18
20730;BMP280;10526;50.850;12.928;2023-04-06T01:08:48;98251.53;;;1.12
20730;BMP280;10526;50.850;12.928;2023-04-06T01:13:14;98251.53;;;1.12
20730;BMP280;10526;50.850;12.928;2023-04-06T01:18:02;98258.31;;;1.13
20730;BMP280;10526;50.850;12.928;2023-04-06T01:22:26;98250.78;;;1.12
20730;BMP280;10526;50.850;12.928;2023-04-06T01:26:55;98241.88;;;1.04
20730;BMP280;10526;50.850;12.928;2023-04-06T01:31:23;98240.31;;;1.03
20730;BMP280;10526;50.850;12.928;2023-04-06T01:35:46;98244.28;;;1.09
20730;BMP280;10526;50.850;12.928;2023-04-06T01:40:12;98242.69;;;1.17
20730;BMP280;10526;50.850;12.928;2023-04-06T01:44:40;98242.06;;;1.20
20730;BMP280;10526;50.850;12.928;2023-04-06T01:49:07;98232.34;;;1.20
20730;BMP280;10526;50.850;12.928;2023-04-06T01:53:32;98234.47;;;1.27
20730;BMP280;10526;50.850;12.928;2023-04-06T01:57:59;98235.78;;;1.33
20730;BMP280;10526;50.850;12.928;2023-04-06T02:02:28;98229.25;;;1.39
20730;BMP280;10526;50.850;12.928;2023-04-06T02:06:58;98224.38;;;1.50
20730;BMP280;10526;50.850;12.928;2023-04-06T02:11:23;98230.31;;;1.59
20730;BMP280;10526;50.850;12.928;2023-04-06T02:15:49;98230.25;;;1.68
20730;BMP280;10526;50.850;12.928;2023-04-06T02:20:11;98225.56;;;1.73
20730;BMP280;10526;50.850;12.928;2023-04-06T02:24:33;98221.63;;;1.80
20730;BMP280;10526;50.850;12.928;2023-04-06T02:28:55;98214.44;;;1.89
20730;BMP280;10526;50.850;12.928;2023-04-06T02:33:18;98217.72;;;1.98
20730;BMP280;10526;50.850;12.928;2023-04-06T02:37:41;98222.75;;;2.03
20730;BMP280;10526;50.850;12.928;2023-04-06T02:42:03;98215.78;;;2.07
20730;BMP280;10526;50.850;12.928;2023-04-06T02:46:26;98214.69;;;2.08
20730;BMP280;10526;50.850;12.928;2023-04-06T02:50:48;98215.56;;;2.00
20730;BMP280;10526;50.850;12.928;2023-04-06T02:55:10;98219.00;;;1.92
20730;BMP280;10526;50.850;12.928;2023-04-06T02:59:33;98219.69;;;1.89
20730;BMP280;10526;50.850;12.928;2023-04-06T03:04:10;98221.97;;;1.90
20730;BMP280;10526;50.850;12.928;2023-04-06T03:08:33;98220.13;;;1.91
20730;BMP280;10526;50.850;12.928;2023-04-06T03:12:56;98216.97;;;1.85
20730;BMP280;10526;50.850;12.928;2023-04-06T03:17:34;98216.63;;;1.87
20730;BMP280;10526;50.850;12.928;2023-04-06T03:22:00;98215.50;;;1.88
20730;BMP280;10526;50.850;12.928;2023-04-06T03:26:22;98218.25;;;1.91
20730;BMP280;10526;50.850;12.928;2023-04-06T03:30:46;98212.88;;;1.88
20730;BMP280;10526;50.850;12.928;2023-04-06T03:35:12;98215.31;;;1.81
20730;BMP280;10526;50.850;12.928;2023-04-06T03:39:34;98223.19;;;1.81
20730;BMP280;10526;50.850;12.928;2023-04-06T03:43:57;98228.53;;;1.84
20730;BMP280;10526;50.850;12.928;2023-04-06T03:48:19;98231.50;;;1.83
20730;BMP280;10526;50.850;12.928;2023-04-06T03:52:42;98238.28;;;1.84
20730;BMP280;10526;50.850;12.928;2023-04-06T03:57:04;98234.97;;;1.75
20730;BMP280;10526;50.850;12.928;2023-04-06T04:01:27;98237.69;;;1.66
20730;BMP280;10526;50.850;12.928;2023-04-06T04:05:49;98241.00;;;1.75
20730;BMP280;10526;50.850;12.928;2023-04-06T04:10:13;98245.72;;;1.82
20730;BMP280;10526;50.850;12.928;2023-04-06T04:14:35;98240.00;;;1.80
20730;BMP280;10526;50.850;12.928;2023-04-06T04:18:57;98245.69;;;1.69
20730;BMP280;10526;50.850;12.928;2023-04-06T04:23:20;98246.63;;;1.65
20730;BMP280;10526;50.850;12.928;2023-04-06T04:27:43;98238.97;;;1.60
20730;BMP280;10526;50.850;12.928;2023-04-06T04:32:06;98238.06;;;1.56
20730;BMP280;10526;50.850;12.928;2023-04-06T04:36:29;98232.44;;;1.45
20730;BMP280;10526;50.850;12.928;2023-04-06T04:40:54;98234.16;;;1.41
20730;BMP280;10526;50.850;12.928;2023-04-06T04:45:17;98242.66;;;1.38
20730;BMP280;10526;50.850;12.928;2023-04-06T04:49:39;98246.72;;;1.35
20730;BMP280;10526;50.850;12.928;2023-04-06T04:54:01;98246.16;;;1.30
20730;BMP280;10526;50.850;12.928;2023-04-06T04:58:25;98251.31;;;1.38
20730;BMP280;10526;50.850;12.928;2023-04-06T05:02:51;98248.44;;;1.52
20730;BMP280;10526;50.850;12.928;2023-04-06T05:07:17;98254.97;;;1.67
20730;BMP280;10526;50.850;12.928;2023-04-06T05:11:40;98251.31;;;1.92
20730;BMP280;10526;50.850;12.928;2023-04-06T05:16:02;98258.03;;;2.14
20730;BMP280;10526;50.850;12.928;2023-04-06T05:20:27;98262.47;;;2.59
20730;BMP280;10526;50.850;12.928;2023-04-06T05:24:50;98257.47;;;3.75
20730;BMP280;10526;50.850;12.928;2023-04-06T05:29:12;98262.34;;;4.36
20730;BMP280;10526;50.850;12.928;2023-04-06T05:33:35;98268.63;;;4.32
20730;BMP280;10526;50.850;12.928;2023-04-06T05:38:02;98263.28;;;4.12
20730;BMP280;10526;50.850;12.928;2023-04-06T05:42:24;98260.38;;;4.01
20730;BMP280;10526;50.850;12.928;2023-04-06T05:46:50;98268.47;;;4.09
20730;BMP280;10526;50.850;12.928;2023-04-06T05:51:12;98264.22;;;4.36
20730;BMP280;10526;50.850;12.928;2023-04-06T05:55:43;98277.34;;;4.67
20730;BMP280;10526;50.850;12.928;2023-04-06T06:00:11;98267.41;;;4.96
20730;BMP280;10526;50.850;12.928;2023-04-06T06:04:34;98278.25;;;4.91
20730;BMP280;10526;50.850;12.928;2023-04-06T06:08:57;98275.69;;;4.94
20730;BMP280;10526;50.850;12.928;2023-04-06T06:13:26;98275.97;;;5.47
20730;BMP280;10526;50.850;12.928;2023-04-06T06:17:50;98287.91;;;6.03
20730;BMP280;10526;50.850;12.928;2023-04-06T06:22:12;98288.72;;;6.56
20730;BMP280;10526;50.850;12.928;2023-04-06T06:26:38;98289.34;;;7.03
20730;BMP280;10526;50.850;12.928;2023-04-06T06:31:03;98298.75;;;9.79
20730;BMP280;10526;50.850;12.928;2023-04-06T06:35:24;98299.94;;;11.08
20730;BMP280;10526;50.850;12.928;2023-04-06T06:39:47;98293.56;;;12.06
20730;BMP280;10526;50.850;12.928;2023-04-06T06:44:10;98297.22;;;14.12
20730;BMP280;10526;50.850;12.928;2023-04-06T06:48:32;98304.03;;;14.76
20730;BMP280;10526;50.850;12.928;2023-04-06T06:52:57;98304.34;;;13.98
20730;BMP280;10526;50.850;12.928;2023-04-06T06:57:28;98298.66;;;12.96
20730;BMP280;10526;50.850;12.928;2023-04-06T07:01:51;98305.78;;;12.41
20730;BMP280;10526;50.850;12.928;2023-04-06T07:06:14;98301.91;;;12.08
20730;BMP280;10526;50.850;12.928;2023-04-06T07:10:36;98306.19;;;12.02
20730;BMP280;10526;50.850;12.928;2023-04-06T07:14:58;98300.03;;;12.05
20730;BMP280;10526;50.850;12.928;2023-04-06T07:19:20;98310.16;;;14.17
20730;BMP280;10526;50.850;12.928;2023-04-06T07:23:42;98309.63;;;16.66
20730;BMP280;10526;50.850;12.928;2023-04-06T07:28:06;98324.06;;;18.98
20730;BMP280;10526;50.850;12.928;2023-04-06T07:32:28;98322.00;;;19.20
20730;BMP280;10526;50.850;12.928;2023-04-06T07:36:51;98319.66;;;18.51
20730;BMP280;10526;50.850;12.928;2023-04-06T07:41:15;98323.19;;;18.39
20730;BMP280;10526;50.850;12.928;2023-04-06T07:45:38;98326.41;;;22.79
20730;BMP280;10526;50.850;12.928;2023-04-06T07:50:00;98332.31;;;25.13
20730;BMP280;10526;50.850;12.928;2023-04-06T07:54:23;98326.06;;;24.47
20730;BMP280;10526;50.850;12.928;2023-04-06T07:58:45;98337.31;;;27.17
20730;BMP280;10526;50.850;12.928;2023-04-06T08:03:07;98334.31;;;29.61
20730;BMP280;10526;50.850;12.928;2023-04-06T08:07:30;98340.06;;;30.55
20730;BMP280;10526;50.850;12.928;2023-04-06T08:11:52;98342.56;;;30.79
20730;BMP280;10526;50.850;12.928;2023-04-06T08:16:14;98346.22;;;31.16
20730;BMP280;10526;50.850;12.928;2023-04-06T08:20:37;98341.78;;;28.34
20730;BMP280;10526;50.850;12.928;2023-04-06T08:24:59;98335.44;;;27.96
20730;BMP280;10526;50.850;12.928;2023-04-06T08:29:21;98339.53;;;27.84
20730;BMP280;10526;50.850;12.928;2023-04-06T08:33:43;98349.06;;;25.87
20730;BMP280;10526;50.850;12.928;2023-04-06T08:38:05;98342.88;;;27.72
20730;BMP280;10526;50.850;12.928;2023-04-06T08:42:28;98341.63;;;28.27
20730;BMP280;10526;50.850;12.928;2023-04-06T08:46:53;98343.00;;;27.85
20730;BMP280;10526;50.850;12.928;2023-04-06T08:51:16;98336.94;;;29.21
20730;BMP280;10526;50.850;12.928;2023-04-06T08:55:41;98338.44;;;29.22
20730;BMP280;10526;50.850;12.928;2023-04-06T09:00:07;98332.66;;;27.01
20730;BMP280;10526;50.850;12.928;2023-04-06T09:04:35;98331.38;;;26.44
20730;BMP280;10526;50.850;12.928;2023-04-06T09:08:58;98325.91;;;24.19
20730;BMP280;10526;50.850;12.928;2023-04-06T09:13:21;98322.31;;;22.34
20730;BMP280;10526;50.850;12.928;2023-04-06T09:17:44;98319.22;;;25.22
20730;BMP280;10526;50.850;12.928;2023-04-06T09:22:06;98320.63;;;27.86
20730;BMP280;10526;50.850;12.928;2023-04-06T09:26:31;98312.03;;;26.31
20730;BMP280;10526;50.850;12.928;2023-04-06T09:30:55;98315.03;;;26.11
20730;BMP280;10526;50.850;12.928;2023-04-06T09:35:18;98324.28;;;26.88
20730;BMP280;10526;50.850;12.928;2023-04-06T09:39:45;98314.34;;;23.99
20730;BMP280;10526;50.850;12.928;2023-04-06T09:44:11;98303.25;;;20.59
20730;BMP280;10526;50.850;12.928;2023-04-06T09:48:34;98302.41;;;18.17
20730;BMP280;10526;50.850;12.928;2023-04-06T09:52:58;98301.69;;;16.33
20730;BMP280;10526;50.850;12.928;2023-04-06T09:57:50;98292.69;;;15.37
20730;BMP280;10526;50.850;12.928;2023-04-06T10:07:13;98299.22;;;22.59
20730;BMP280;10526;50.850;12.928;2023-04-06T10:11:37;98295.44;;;26.23
20730;BMP280;10526;50.850;12.928;2023-04-06T10:16:00;98304.63;;;29.14
20730;BMP280;10526;50.850;12.928;2023-04-06T10:21:12;98302.59;;;25.20
20730;BMP280;10526;50.850;12.928;2023-04-06T10:25:36;98293.03;;;26.67
20730;BMP280;10526;50.850;12.928;2023-04-06T10:30:05;98295.94;;;26.85
20730;BMP280;10526;50.850;12.928;2023-04-06T10:34:37;98291.66;;;28.21
20730;BMP280;10526;50.850;12.928;2023-04-06T10:39:05;98293.31;;;28.67
20730;BMP280;10526;50.850;12.928;2023-04-06T10:43:34;98285.72;;;28.17
20730;BMP280;10526;50.850;12.928;2023-04-06T10:48:00;98281.22;;;28.75
20730;BMP280;10526;50.850;12.928;2023-04-06T10:52:22;98280.78;;;27.25
20730;BMP280;10526;50.850;12.928;2023-04-06T10:56:44;98283.16;;;29.76
20730;BMP280;10526;50.850;12.928;2023-04-06T11:01:06;98271.84;;;30.87
20730;BMP280;10526;50.850;12.928;2023-04-06T11:05:28;98273.19;;;30.39
20730;BMP280;10526;50.850;12.928;2023-04-06T11:09:51;98269.31;;;31.88
20730;BMP280;10526;50.850;12.928;2023-04-06T11:14:33;98272.88;;;32.47
20730;BMP280;10526;50.850;12.928;2023-04-06T11:19:04;98279.69;;;32.61
20730;BMP280;10526;50.850;12.928;2023-04-06T11:23:27;98267.00;;;32.81
20730;BMP280;10526;50.850;12.928;2023-04-06T11:27:50;98266.56;;;29.56
20730;BMP280;10526;50.850;12.928;2023-04-06T11:32:21;98243.84;;;25.14
20730;BMP280;10526;50.850;12.928;2023-04-06T11:36:46;98246.09;;;22.73
20730;BMP280;10526;50.850;12.928;2023-04-06T11:41:08;98229.34;;;22.19
20730;BMP280;10526;50.850;12.928;2023-04-06T11:45:42;98224.69;;;21.46
20730;BMP280;10526;50.850;12.928;2023-04-06T11:50:14;98219.19;;;19.79
20730;BMP280;10526;50.850;12.928;2023-04-06T11:54:37;98211.22;;;17.94
20730;BMP280;10526;50.850;12.928;2023-04-06T11:59:00;98201.94;;;16.82
20730;BMP280;10526;50.850;12.928;2023-04-06T12:03:22;98204.47;;;15.68
20730;BMP280;10526;50.850;12.928;2023-04-06T12:07:44;98195.75;;;15.35
20730;BMP280;10526;50.850;12.928;2023-04-06T12:12:06;98187.22;;;15.07
20730;BMP280;10526;50.850;12.928;2023-04-06T12:16:28;98183.75;;;14.58
20730;BMP280;10526;50.850;12.928;2023-04-06T12:20:51;98179.75;;;14.30
20730;BMP280;10526;50.850;12.928;2023-04-06T12:25:14;98175.69;;;14.05
20730;BMP280;10526;50.850;12.928;2023-04-06T12:29:37;98176.91;;;13.81
20730;BMP280;10526;50.850;12.928;2023-04-06T12:33:59;98178.94;;;13.73
20730;BMP280;10526;50.850;12.928;2023-04-06T12:38:22;98175.59;;;13.26
20730;BMP280;10526;50.850;12.928;2023-04-06T12:42:45;98170.69;;;13.21
20730;BMP280;10526;50.850;12.928;2023-04-06T12:47:07;98164.91;;;13.26
20730;BMP280;10526;50.850;12.928;2023-04-06T12:51:30;98160.22;;;13.30
20730;BMP280;10526;50.850;12.928;2023-04-06T12:55:56;98161.72;;;13.31
20730;BMP280;10526;50.850;12.928;2023-04-06T13:00:19;98150.53;;;13.16
20730;BMP280;10526;50.850;12.928;2023-04-06T13:04:41;98142.63;;;13.09
20730;BMP280;10526;50.850;12.928;2023-04-06T13:09:04;98142.06;;;12.71
20730;BMP280;10526;50.850;12.928;2023-04-06T13:13:31;98139.28;;;12.78
20730;BMP280;10526;50.850;12.928;2023-04-06T13:17:53;98131.31;;;12.75
20730;BMP280;10526;50.850;12.928;2023-04-06T13:22:17;98136.09;;;12.60
20730;BMP280;10526;50.850;12.928;2023-04-06T13:26:39;98134.34;;;12.50
20730;BMP280;10526;50.850;12.928;2023-04-06T13:31:02;98124.56;;;12.40
20730;BMP280;10526;50.850;12.928;2023-04-06T13:35:24;98128.84;;;12.33
20730;BMP280;10526;50.850;12.928;2023-04-06T13:39:47;98112.91;;;12.26
20730;BMP280;10526;50.850;12.928;2023-04-06T13:44:09;98112.28;;;12.15
20730;BMP280;10526;50.850;12.928;2023-04-06T13:48:31;98112.28;;;12.15
20730;BMP280;10526;50.850;12.928;2023-04-06T13:52:53;98102.69;;;12.21
20730;BMP280;10526;50.850;12.928;2023-04-06T13:57:16;98104.28;;;12.15
20730;BMP280;10526;50.850;12.928;2023-04-06T14:01:39;98106.31;;;12.04
20730;BMP280;10526;50.850;12.928;2023-04-06T14:06:10;98109.59;;;11.85
20730;BMP280;10526;50.850;12.928;2023-04-06T14:10:51;98096.19;;;11.58
20730;BMP280;10526;50.850;12.928;2023-04-06T14:15:13;98101.78;;;11.29
20730;BMP280;10526;50.850;12.928;2023-04-06T14:19:35;98099.59;;;10.69
20730;BMP280;10526;50.850;12.928;2023-04-06T14:23:57;98100.06;;;10.56
20730;BMP280;10526;50.850;12.928;2023-04-06T14:28:20;98099.34;;;10.45
20730;BMP280;10526;50.850;12.928;2023-04-06T14:32:43;98097.16;;;10.26
20730;BMP280;10526;50.850;12.928;2023-04-06T14:37:05;98087.72;;;10.07
20730;BMP280;10526;50.850;12.928;2023-04-06T14:41:28;98084.31;;;10.14
20730;BMP280;10526;50.850;12.928;2023-04-06T14:45:50;98084.22;;;10.24
20730;BMP280;10526;50.850;12.928;2023-04-06T14:50:12;98079.72;;;10.18
20730;BMP280;10526;50.850;12.928;2023-04-06T14:54:34;98084.97;;;10.25
20730;BMP280;10526;50.850;12.928;2023-04-06T14:58:58;98086.53;;;10.26
20730;BMP280;10526;50.850;12.928;2023-04-06T15:03:20;98081.22;;;10.19
20730;BMP280;10526;50.850;12.928;2023-04-06T15:07:43;98073.59;;;10.21
20730;BMP280;10526;50.850;12.928;2023-04-06T15:12:05;98078.56;;;10.22
20730;BMP280;10526;50.850;12.928;2023-04-06T15:16:27;98074.34;;;10.25
20730;BMP280;10526;50.850;12.928;2023-04-06T15:20:54;98077.06;;;10.21
20730;BMP280;10526;50.850;12.928;2023-04-06T15:25:16;98074.44;;;10.07
20730;BMP280;10526;50.850;12.928;2023-04-06T15:29:39;98068.00;;;9.97
20730;BMP280;10526;50.850;12.928;2023-04-06T15:34:01;98072.88;;;10.09
20730;BMP280;10526;50.850;12.928;2023-04-06T15:38:23;98070.94;;;10.21
20730;BMP280;10526;50.850;12.928;2023-04-06T15:42:45;98075.13;;;10.25
20730;BMP280;10526;50.850;12.928;2023-04-06T15:47:07;98081.53;;;10.35
20730;BMP280;10526;50.850;12.928;2023-04-06T15:51:29;98074.28;;;10.35
20730;BMP280;10526;50.850;12.928;2023-04-06T15:56:01;98074.72;;;10.27
20730;BMP280;10526;50.850;12.928;2023-04-06T16:00:25;98075.50;;;10.17
20730;BMP280;10526;50.850;12.928;2023-04-06T16:04:47;98076.41;;;9.85
20730;BMP280;10526;50.850;12.928;2023-04-06T16:09:09;98077.19;;;9.75
20730;BMP280;10526;50.850;12.928;2023-04-06T16:13:32;98082.91;;;9.63
20730;BMP280;10526;50.850;12.928;2023-04-06T16:17:54;98084.06;;;9.54
20730;BMP280;10526;50.850;12.928;2023-04-06T16:22:16;98083.72;;;9.45
20730;BMP280;10526;50.850;12.928;2023-04-06T16:26:38;98090.56;;;9.39
20730;BMP280;10526;50.850;12.928;2023-04-06T16:31:00;98083.34;;;9.33
20730;BMP280;10526;50.850;12.928;2023-04-06T16:35:23;98084.13;;;9.19
20730;BMP280;10526;50.850;12.928;2023-04-06T16:39:47;98083.72;;;9.10
20730;BMP280;10526;50.850;12.928;2023-04-06T16:44:09;98075.41;;;9.00
20730;BMP280;10526;50.850;12.928;2023-04-06T16:48:32;98076.53;;;8.92
20730;BMP280;10526;50.850;12.928;2023-04-06T16:52:54;98073.50;;;8.83
20730;BMP280;10526;50.850;12.928;2023-04-06T16:57:16;98082.56;;;8.75
20730;BMP280;10526;50.850;12.928;2023-04-06T17:01:39;98082.19;;;8.69
20730;BMP280;10526;50.850;12.928;2023-04-06T17:06:03;98085.19;;;8.57
20730;BMP280;10526;50.850;12.928;2023-04-06T17:10:25;98080.25;;;8.45
20730;BMP280;10526;50.850;12.928;2023-04-06T17:14:57;98085.16;;;8.36
20730;BMP280;10526;50.850;12.928;2023-04-06T17:19:19;98080.56;;;8.22
20730;BMP280;10526;50.850;12.928;2023-04-06T17:23:42;98078.22;;;8.10
20730;BMP280;10526;50.850;12.928;2023-04-06T17:28:05;98080.03;;;7.91
20730;BMP280;10526;50.850;12.928;2023-04-06T17:32:27;98079.91;;;7.74
20730;BMP280;10526;50.850;12.928;2023-04-06T17:36:50;98086.25;;;7.55
20730;BMP280;10526;50.850;12.928;2023-04-06T17:41:12;98092.94;;;7.34
20730;BMP280;10526;50.850;12.928;2023-04-06T17:45:35;98093.50;;;7.17
20730;BMP280;10526;50.850;12.928;2023-04-06T17:50:01;98099.03;;;6.98
20730;BMP280;10526;50.850;12.928;2023-04-06T17:54:23;98095.00;;;6.74
20730;BMP280;10526;50.850;12.928;2023-04-06T17:58:45;98107.66;;;6.54
20730;BMP280;10526;50.850;12.928;2023-04-06T18:03:07;98113.84;;;6.35
20730;BMP280;10526;50.850;12.928;2023-04-06T18:07:29;98112.69;;;6.32
20730;BMP280;10526;50.850;12.928;2023-04-06T18:11:51;98111.47;;;6.26
20730;BMP280;10526;50.850;12.928;2023-04-06T18:16:13;98121.09;;;6.12
20730;BMP280;10526;50.850;12.928;2023-04-06T18:20:39;98125.41;;;5.97
20730;BMP280;10526;50.850;12.928;2023-04-06T18:25:05;98119.22;;;5.86
20730;BMP280;10526;50.850;12.928;2023-04-06T18:29:28;98126.69;;;5.80
20730;BMP280;10526;50.850;12.928;2023-04-06T18:33:50;98131.16;;;5.76
20730;BMP280;10526;50.850;12.928;2023-04-06T18:38:14;98126.53;;;5.69
20730;BMP280;10526;50.850;12.928;2023-04-06T18:42:36;98127.91;;;5.60
20730;BMP280;10526;50.850;12.928;2023-04-06T18:46:59;98141.97;;;5.44
20730;BMP280;10526;50.850;12.928;2023-04-06T18:51:22;98134.56;;;5.30
20730;BMP280;10526;50.850;12.928;2023-04-06T18:55:44;98125.66;;;5.16
20730;BMP280;10526;50.850;12.928;2023-04-06T19:00:07;98137.31;;;4.95
20730;BMP280;10526;50.850;12.928;2023-04-06T19:04:29;98137.16;;;4.85
20730;BMP280;10526;50.850;12.928;2023-04-06T19:08:52;98135.44;;;4.73
20730;BMP280;10526;50.850;12.928;2023-04-06T19:13:14;98137.53;;;4.67
20730;BMP280;10526;50.850;12.928;2023-04-06T19:17:36;98146.50;;;4.63
20730;BMP280;10526;50.850;12.928;2023-04-06T19:21:59;98142.63;;;4.57
20730;BMP280;10526;50.850;12.928;2023-04-06T19:26:23;98140.53;;;4.46
20730;BMP280;10526;50.850;12.928;2023-04-06T19:30:48;98146.34;;;4.36
20730;BMP280;10526;50.850;12.928;2023-04-06T19:35:10;98136.91;;;4.35
20730;BMP280;10526;50.850;12.928;2023-04-06T19:39:33;98141.81;;;4.37
20730;BMP280;10526;50.850;12.928;2023-04-06T19:43:57;98140.72;;;4.38
20730;BMP280;10526;50.850;12.928;2023-04-06T19:48:19;98138.09;;;4.38
20730;BMP280;10526;50.850;12.928;2023-04-06T19:52:41;98136.16;;;4.35
20730;BMP280;10526;50.850;12.928;2023-04-06T19:57:04;98130.63;;;4.24
20730;BMP280;10526;50.850;12.928;2023-04-06T20:01:26;98125.69;;;4.22
20730;BMP280;10526;50.850;12.928;2023-04-06T20:05:48;98130.50;;;4.17
20730;BMP280;10526;50.850;12.928;2023-04-06T20:10:10;98132.88;;;4.06
20730;BMP280;10526;50.850;12.928;2023-04-06T20:14:32;98131.69;;;3.88
20730;BMP280;10526;50.850;12.928;2023-04-06T20:18:55;98134.84;;;3.78
20730;BMP280;10526;50.850;12.928;2023-04-06T20:23:17;98130.75;;;3.64
20730;BMP280;10526;50.850;12.928;2023-04-06T20:27:39;98137.56;;;3.49
20730;BMP280;10526;50.850;12.928;2023-04-06T20:32:01;98134.47;;;3.32
20730;BMP280;10526;50.850;12.928;2023-04-06T20:36:25;98134.13;;;3.17
20730;BMP280;10526;50.850;12.928;2023-04-06T20:40:48;98132.91;;;3.15
20730;BMP280;10526;50.850;12.928;2023-04-06T20:45:11;98130.97;;;3.12
20730;BMP280;10526;50.850;12.928;2023-04-06T20:49:47;98133.91;;;3.10
20730;BMP280;10526;50.850;12.928;2023-04-06T20:54:09;98132.19;;;3.02
20730;BMP280;10526;50.850;12.928;2023-04-06T20:58:31;98125.22;;;2.94
20730;BMP280;10526;50.850;12.928;2023-04-06T21:02:53;98120.88;;;2.86
20730;BMP280;10526;50.850;12.928;2023-04-06T21:07:16;98118.69;;;2.76
20730;BMP280;10526;50.850;12.928;2023-04-06T21:11:38;98117.72;;;2.68
20730;BMP280;10526;50.850;12.928;2023-04-06T21:16:00;98122.16;;;2.64
20730;BMP280;10526;50.850;12.928;2023-04-06T21:20:23;98118.44;;;2.53
20730;BMP280;10526;50.850;12.928;2023-04-06T21:24:44;98112.97;;;2.33
20730;BMP280;10526;50.850;12.928;2023-04-06T21:29:07;98121.44;;;2.14
20730;BMP280;10526;50.850;12.928;2023-04-06T21:33:29;98106.88;;;1.92
20730;BMP280;10526;50.850;12.928;2023-04-06T21:37:51;98113.75;;;1.72
20730;BMP280;10526;50.850;12.928;2023-04-06T21:42:13;98107.50;;;1.53
20730;BMP280;10526;50.850;12.928;2023-04-06T21:46:36;98103.31;;;1.39
20730;BMP280;10526;50.850;12.928;2023-04-06T21:50:58;98111.06;;;1.36
20730;BMP280;10526;50.850;12.928;2023-04-06T21:55:20;98105.59;;;1.41
20730;BMP280;10526;50.850;12.928;2023-04-06T21:59:42;98099.47;;;1.37
20730;BMP280;10526;50.850;12.928;2023-04-06T22:04:04;98097.59;;;1.25
20730;BMP280;10526;50.850;12.928;2023-04-06T22:08:26;98105.44;;;1.13
20730;BMP280;10526;50.850;12.928;2023-04-06T22:12:55;98095.19;;;0.99
20730;BMP280;10526;50.850;12.928;2023-04-06T22:17:17;98098.41;;;0.84
20730;BMP280;10526;50.850;12.928;2023-04-06T22:21:39;98098.94;;;0.77
20730;BMP280;10526;50.850;12.928;2023-04-06T22:26:01;98088.31;;;0.73
20730;BMP280;10526;50.850;12.928;2023-04-06T22:30:23;98085.75;;;0.65
20730;BMP280;10526;50.850;12.928;2023-04-06T22:34:46;98093.09;;;0.51
20730;BMP280;10526;50.850;12.928;2023-04-06T22:39:08;98094.16;;;0.49
20730;BMP280;10526;50.850;12.928;2023-04-06T22:43:30;98086.84;;;0.43
20730;BMP280;10526;50.850;12.928;2023-04-06T22:47:52;98094.69;;;0.43
20730;BMP280;10526;50.850;12.928;2023-04-06T22:52:14;98095.00;;;0.41
20730;BMP280;10526;50.850;12.928;2023-04-06T22:56:36;98088.31;;;0.32
20730;BMP280;10526;50.850;12.928;2023-04-06T23:00:58;98083.47;;;0.34
20730;BMP280;10526;50.850;12.928;2023-04-06T23:05:21;98082.09;;;0.36
20730;BMP280;10526;50.850;12.928;2023-04-06T23:09:43;98080.31;;;0.28
20730;BMP280;10526;50.850;12.928;2023-04-06T23:14:05;98080.50;;;0.23
20730;BMP280;10526;50.850;12.928;2023-04-06T23:18:27;98083.63;;;0.16
20730;BMP280;10526;50.850;12.928;2023-04-06T23:22:50;98076.25;;;0.10
20730;BMP280;10526;50.850;12.928;2023-04-06T23:27:12;98073.31;;;0.11
20730;BMP280;10526;50.850;12.928;2023-04-06T23:31:34;98075.53;;;0.30
20730;BMP280;10526;50.850;12.928;2023-04-06T23:35:56;98073.47;;;0.36
20730;BMP280;10526;50.850;12.928;2023-04-06T23:40:18;98074.47;;;0.31
20730;BMP280;10526;50.850;12.928;2023-04-06T23:44:41;98070.16;;;0.27
20730;BMP280;10526;50.850;12.928;2023-04-06T23:49:03;98066.78;;;0.47
20730;BMP280;10526;50.850;12.928;2023-04-06T23:53:25;98058.78;;;0.64
20730;BMP280;10526;50.850;12.928;2023-04-06T23:57:47;98060.75;;;0.67
